createdAt,value
2017-12-25T00:00:26.446Z,75.2
2017-12-25T00:01:29.451Z,75
2017-12-25T00:02:31.862Z,75.2
2017-12-25T00:03:34.293Z,75
2017-12-25T00:04:36.714Z,75.1
2017-12-25T00:05:39.142Z,75
2017-12-25T00:06:41.563Z,75.1
2017-12-25T00:07:44.001Z,75.2
2017-12-25T00:08:46.704Z,75
2017-12-25T00:09:49.416Z,75.1
2017-12-25T00:10:51.825Z,75.1
2017-12-25T00:11:54.528Z,75
2017-12-25T00:12:56.937Z,75
2017-12-25T00:13:59.353Z,75
2017-12-25T00:15:01.774Z,75.1
2017-12-25T00:16:04.486Z,74.9
2017-12-25T00:17:07.228Z,74.8
2017-12-25T00:18:09.614Z,74.8
2017-12-25T00:19:12.020Z,74.9
2017-12-25T00:20:14.440Z,74.9
2017-12-25T00:21:16.858Z,75
2017-12-25T00:22:19.273Z,74.9
2017-12-25T00:23:21.695Z,75
2017-12-25T00:24:24.130Z,74.9
2017-12-25T00:25:26.531Z,74.9
2017-12-25T00:26:29.260Z,74.9
2017-12-25T00:27:31.682Z,74.9
2017-12-25T00:28:34.092Z,74.8
2017-12-25T00:29:36.513Z,74.8
2017-12-25T00:30:38.929Z,74.7
2017-12-25T00:31:41.334Z,74.9
2017-12-25T00:32:43.756Z,74.8
2017-12-25T00:33:46.179Z,74.7
2017-12-25T00:34:48.598Z,74.8
2017-12-25T00:35:51.018Z,74.7
2017-12-25T00:36:53.424Z,74.8
2017-12-25T00:37:55.839Z,74.9
2017-12-25T00:38:58.263Z,74.9
2017-12-25T00:40:00.948Z,74.9
2017-12-25T00:41:03.367Z,74.9
2017-12-25T00:42:06.090Z,74.7
2017-12-25T00:43:08.789Z,74.8
2017-12-25T00:44:11.213Z,74.6
2017-12-25T00:45:13.622Z,74.8
2017-12-25T00:46:16.322Z,74.7
2017-12-25T00:47:18.744Z,74.7
2017-12-25T00:48:21.163Z,74.6
2017-12-25T00:49:23.577Z,74.4
2017-12-25T00:50:26.299Z,74.5
2017-12-25T00:51:28.714Z,74.5
2017-12-25T00:52:31.123Z,74.5
2017-12-25T00:53:33.539Z,74.4
2017-12-25T00:54:35.949Z,74.4
2017-12-25T00:55:38.694Z,74.5
2017-12-25T00:56:41.105Z,74.5
2017-12-25T00:57:43.512Z,74.3
2017-12-25T00:58:45.936Z,74.3
2017-12-25T00:59:48.365Z,74.3
2017-12-25T01:00:50.786Z,74.4
2017-12-25T01:01:53.200Z,74.5
2017-12-25T01:02:55.626Z,74.2
2017-12-25T01:03:58.043Z,74.2
2017-12-25T01:05:00.459Z,74.3
2017-12-25T01:06:02.865Z,74.4
2017-12-25T01:07:05.295Z,74.4
2017-12-25T01:08:07.707Z,74.2
2017-12-25T01:09:10.125Z,74.3
2017-12-25T01:10:12.537Z,74.3
2017-12-25T01:11:14.957Z,74.4
2017-12-25T01:12:17.371Z,74.3
2017-12-25T01:13:19.796Z,74.2
2017-12-25T01:14:22.198Z,74.3
2017-12-25T01:15:24.615Z,74.2
2017-12-25T01:16:27.038Z,74.2
2017-12-25T01:17:29.726Z,74.4
2017-12-25T01:18:32.142Z,74.5
2017-12-25T01:19:34.568Z,74.3
2017-12-25T01:20:37.590Z,74.3
2017-12-25T01:21:40.297Z,74.5
2017-12-25T01:22:42.713Z,74.6
2017-12-25T01:23:45.113Z,74.7
2017-12-25T01:24:47.547Z,74.7
2017-12-25T01:25:49.956Z,74.7
2017-12-25T01:26:52.379Z,74.6
2017-12-25T01:27:54.803Z,74.7
2017-12-25T01:28:57.219Z,74.7
2017-12-25T01:29:59.920Z,74.7
2017-12-25T01:31:02.347Z,74.7
2017-12-25T01:32:04.762Z,74.7
2017-12-25T01:33:07.178Z,74.8
2017-12-25T01:34:09.589Z,74.9
2017-12-25T01:35:12.008Z,75
2017-12-25T01:36:14.427Z,75
2017-12-25T01:37:16.835Z,75
2017-12-25T01:38:19.262Z,75
2017-12-25T01:39:21.672Z,74.9
2017-12-25T01:40:24.100Z,74.9
2017-12-25T01:41:26.515Z,75
2017-12-25T01:42:28.934Z,75
2017-12-25T01:43:31.345Z,75.1
2017-12-25T01:44:33.765Z,74.9
2017-12-25T01:45:36.183Z,75
2017-12-25T01:46:38.589Z,75
2017-12-25T01:47:41.000Z,75
2017-12-25T01:48:43.408Z,74.9
2017-12-25T01:49:45.839Z,74.9
2017-12-25T01:50:48.244Z,74.9
2017-12-25T01:51:50.660Z,74.9
2017-12-25T01:52:53.080Z,74.9
2017-12-25T01:53:55.498Z,74.9
2017-12-25T01:54:57.922Z,75
2017-12-25T01:56:00.344Z,74.8
2017-12-25T01:57:02.755Z,74.8
2017-12-25T01:58:05.177Z,75
2017-12-25T01:59:07.601Z,75
2017-12-25T02:00:10.018Z,75
2017-12-25T02:01:12.421Z,74.9
2017-12-25T02:02:14.840Z,74.9
2017-12-25T02:03:17.250Z,75
2017-12-25T02:04:19.658Z,75.1
2017-12-25T02:05:22.073Z,74.9
2017-12-25T02:06:24.498Z,75
2017-12-25T02:07:27.202Z,74.9
2017-12-25T02:08:29.900Z,74.8
2017-12-25T02:09:32.309Z,75
2017-12-25T02:10:34.729Z,75
2017-12-25T02:11:37.155Z,75
2017-12-25T02:12:39.572Z,75.2
2017-12-25T02:13:41.974Z,75.2
2017-12-25T02:14:44.395Z,75.2
2017-12-25T02:15:46.807Z,75.2
2017-12-25T02:16:49.510Z,75.1
2017-12-25T02:17:51.918Z,75.1
2017-12-25T02:18:54.335Z,75.3
2017-12-25T02:19:57.036Z,75.2
2017-12-25T02:21:00.018Z,75
2017-12-25T02:22:02.437Z,75
2017-12-25T02:23:04.847Z,75
2017-12-25T02:24:07.268Z,75.1
2017-12-25T02:25:09.964Z,75
2017-12-25T02:26:12.380Z,75.1
2017-12-25T02:27:14.785Z,75.2
2017-12-25T02:28:17.198Z,75.2
2017-12-25T02:29:19.893Z,75.2
2017-12-25T02:30:22.305Z,75.1
2017-12-25T02:31:24.726Z,75.1
2017-12-25T02:32:27.436Z,74.9
2017-12-25T02:33:29.854Z,74.8
2017-12-25T02:34:32.270Z,74.9
2017-12-25T02:35:35.551Z,75
2017-12-25T02:36:37.962Z,75.1
2017-12-25T02:37:40.391Z,75.2
2017-12-25T02:38:42.805Z,75.2
2017-12-25T02:39:45.213Z,75.2
2017-12-25T02:40:47.636Z,75.1
2017-12-25T02:41:50.052Z,74.9
2017-12-25T02:42:52.468Z,75
2017-12-25T02:43:55.181Z,75.1
2017-12-25T02:44:57.583Z,75.1
2017-12-25T02:46:00.012Z,75.2
2017-12-25T02:47:02.718Z,75
2017-12-25T02:48:05.123Z,75.2
2017-12-25T02:49:07.544Z,75.2
2017-12-25T02:50:09.954Z,75.2
2017-12-25T02:51:12.645Z,75.2
2017-12-25T02:52:15.064Z,75.3
2017-12-25T02:53:17.473Z,75.3
2017-12-25T02:54:19.896Z,75.4
2017-12-25T02:55:22.319Z,75.3
2017-12-25T02:56:24.726Z,75.4
2017-12-25T02:57:27.140Z,75.5
2017-12-25T02:58:29.867Z,75.5
2017-12-25T02:59:32.282Z,75.4
2017-12-25T03:00:35.008Z,75.5
2017-12-25T03:01:37.433Z,75.4
2017-12-25T03:02:39.871Z,75.2
2017-12-25T03:03:42.283Z,75.2
2017-12-25T03:04:44.700Z,75.3
2017-12-25T03:05:47.109Z,75.2
2017-12-25T03:06:49.525Z,75.2
2017-12-25T03:07:52.229Z,75.3
2017-12-25T03:08:54.636Z,75.4
2017-12-25T03:09:57.063Z,75.4
2017-12-25T03:10:59.492Z,75.4
2017-12-25T03:12:01.912Z,75.3
2017-12-25T03:13:04.328Z,75.4
2017-12-25T03:14:06.737Z,75.3
2017-12-25T03:15:09.725Z,75.2
2017-12-25T03:16:12.144Z,75.3
2017-12-25T03:17:14.557Z,75.4
2017-12-25T03:18:16.978Z,75.3
2017-12-25T03:19:19.436Z,75.5
2017-12-25T03:20:21.863Z,75.5
2017-12-25T03:21:24.640Z,75.4
2017-12-25T03:22:27.333Z,75.3
2017-12-25T03:23:30.088Z,75.2
2017-12-25T03:24:32.500Z,75.3
2017-12-25T03:25:34.915Z,75.3
2017-12-25T03:26:37.336Z,75.4
2017-12-25T03:27:39.739Z,75.2
2017-12-25T03:28:42.431Z,75.3
2017-12-25T03:29:44.861Z,75.3
2017-12-25T03:30:47.266Z,75.4
2017-12-25T03:31:49.982Z,75.2
2017-12-25T03:32:52.710Z,75.2
2017-12-25T03:33:55.122Z,75.1
2017-12-25T03:34:57.897Z,75.1
2017-12-25T03:36:00.306Z,75.2
2017-12-25T03:37:02.800Z,75.3
2017-12-25T03:38:05.215Z,75.2
2017-12-25T03:39:07.637Z,75.4
2017-12-25T03:40:10.048Z,75.6
2017-12-25T03:41:12.544Z,75.6
2017-12-25T03:42:14.959Z,75.5
2017-12-25T03:43:17.372Z,75.4
2017-12-25T03:44:19.867Z,75.2
2017-12-25T03:45:22.331Z,75.2
2017-12-25T03:46:24.747Z,75.2
2017-12-25T03:47:27.166Z,75.2
2017-12-25T03:48:29.589Z,75.2
2017-12-25T03:49:32.005Z,75.3
2017-12-25T03:50:34.480Z,75.4
2017-12-25T03:51:37.495Z,75.3
2017-12-25T03:52:39.909Z,75.4
2017-12-25T03:53:42.341Z,75.3
2017-12-25T03:54:44.766Z,75.4
2017-12-25T03:55:47.174Z,75.2
2017-12-25T03:56:49.591Z,75.3
2017-12-25T03:57:52.006Z,75.3
2017-12-25T03:58:54.423Z,75.3
2017-12-25T03:59:56.839Z,75.3
2017-12-25T04:00:59.272Z,75.2
2017-12-25T04:02:01.684Z,75.2
2017-12-25T04:03:04.100Z,75.2
2017-12-25T04:04:06.518Z,75.2
2017-12-25T04:05:08.939Z,75.3
2017-12-25T04:06:11.634Z,75.2
2017-12-25T04:07:14.057Z,75.2
2017-12-25T04:08:16.462Z,75.1
2017-12-25T04:09:18.871Z,75.2
2017-12-25T04:10:21.299Z,75.2
2017-12-25T04:11:23.987Z,75.2
2017-12-25T04:12:26.673Z,75.2
2017-12-25T04:13:29.384Z,75.1
2017-12-25T04:14:32.082Z,75.1
2017-12-25T04:15:34.500Z,75.1
2017-12-25T04:16:36.917Z,75.1
2017-12-25T04:17:39.323Z,75.2
2017-12-25T04:18:41.746Z,75.2
2017-12-25T04:19:44.174Z,75.1
2017-12-25T04:20:46.590Z,75.2
2017-12-25T04:21:49.010Z,75
2017-12-25T04:22:51.426Z,75.2
2017-12-25T04:23:53.841Z,75
2017-12-25T04:24:56.261Z,75
2017-12-25T04:25:58.972Z,75.1
2017-12-25T04:27:01.373Z,75.1
2017-12-25T04:28:03.792Z,75.1
2017-12-25T04:29:06.203Z,75
2017-12-25T04:30:08.624Z,75
2017-12-25T04:31:11.045Z,75.1
2017-12-25T04:32:13.457Z,75.1
2017-12-25T04:33:15.875Z,75
2017-12-25T04:34:18.305Z,75
2017-12-25T04:35:20.725Z,75
2017-12-25T04:36:23.146Z,75
2017-12-25T04:37:25.550Z,75.1
2017-12-25T04:38:27.972Z,75.1
2017-12-25T04:39:30.670Z,75.1
2017-12-25T04:40:33.089Z,75.1
2017-12-25T04:41:35.493Z,75.1
2017-12-25T04:42:37.911Z,75.1
2017-12-25T04:43:40.335Z,74.8
2017-12-25T04:44:42.743Z,74.8
2017-12-25T04:45:45.168Z,74.9
2017-12-25T04:46:47.642Z,75
2017-12-25T04:47:50.011Z,75
2017-12-25T04:48:52.428Z,75.1
2017-12-25T04:49:54.842Z,75
2017-12-25T04:50:57.255Z,75
2017-12-25T04:51:59.675Z,75.1
2017-12-25T04:53:02.081Z,75.1
2017-12-25T04:54:04.495Z,75.1
2017-12-25T04:55:06.910Z,75.1
2017-12-25T04:56:09.326Z,75.1
2017-12-25T04:57:11.749Z,75
2017-12-25T04:58:14.449Z,74.9
2017-12-25T04:59:16.864Z,75
2017-12-25T05:00:19.282Z,74.9
2017-12-25T05:01:21.697Z,75
2017-12-25T05:02:24.114Z,74.9
2017-12-25T05:03:26.523Z,74.9
2017-12-25T05:04:28.941Z,74.9
2017-12-25T05:05:31.359Z,74.9
2017-12-25T05:06:34.045Z,74.9
2017-12-25T05:07:36.761Z,75
2017-12-25T05:08:39.232Z,74.9
2017-12-25T05:09:41.642Z,74.9
2017-12-25T05:10:44.063Z,74.9
2017-12-25T05:11:46.480Z,75
2017-12-25T05:12:49.179Z,74.9
2017-12-25T05:13:51.913Z,74.9
2017-12-25T05:14:54.611Z,74.9
2017-12-25T05:15:57.316Z,75
2017-12-25T05:17:00.035Z,74.9
2017-12-25T05:18:02.448Z,74.9
2017-12-25T05:19:04.870Z,74.9
2017-12-25T05:20:07.279Z,74.9
2017-12-25T05:21:09.700Z,75
2017-12-25T05:22:12.132Z,74.9
2017-12-25T05:23:14.548Z,74.8
2017-12-25T05:24:16.950Z,74.9
2017-12-25T05:25:19.382Z,74.9
2017-12-25T05:26:22.110Z,74.9
2017-12-25T05:27:24.821Z,74.9
2017-12-25T05:28:27.531Z,75
2017-12-25T05:29:29.956Z,75.1
2017-12-25T05:30:32.373Z,75
2017-12-25T05:31:34.790Z,75.1
2017-12-25T05:32:37.196Z,75.1
2017-12-25T05:33:39.627Z,75.1
2017-12-25T05:34:42.061Z,75
2017-12-25T05:35:44.470Z,75
2017-12-25T05:36:46.888Z,74.9
2017-12-25T05:37:49.310Z,74.8
2017-12-25T05:38:51.723Z,74.9
2017-12-25T05:39:54.152Z,74.8
2017-12-25T05:40:56.867Z,74.9
2017-12-25T05:41:59.282Z,74.9
2017-12-25T05:43:01.708Z,75
2017-12-25T05:44:04.117Z,75
2017-12-25T05:45:06.547Z,75
2017-12-25T05:46:08.982Z,75
2017-12-25T05:47:11.681Z,75.1
2017-12-25T05:48:14.100Z,75
2017-12-25T05:49:16.515Z,75
2017-12-25T05:50:18.917Z,75
2017-12-25T05:51:21.354Z,74.9
2017-12-25T05:52:24.033Z,74.9
2017-12-25T05:53:26.463Z,74.9
2017-12-25T05:54:28.885Z,74.8
2017-12-25T05:55:31.295Z,74.9
2017-12-25T05:56:33.730Z,74.9
2017-12-25T05:57:36.158Z,75
2017-12-25T05:58:38.863Z,75.1
2017-12-25T05:59:41.286Z,75
2017-12-25T06:00:43.699Z,75
2017-12-25T06:01:46.107Z,75
2017-12-25T06:02:48.516Z,75
2017-12-25T06:03:51.247Z,74.9
2017-12-25T06:04:53.666Z,74.9
2017-12-25T06:05:56.078Z,75
2017-12-25T06:06:58.501Z,74.8
2017-12-25T06:08:00.920Z,75
2017-12-25T06:09:03.372Z,74.8
2017-12-25T06:10:05.771Z,74.7
2017-12-25T06:11:08.492Z,74.8
2017-12-25T06:12:10.899Z,74.7
2017-12-25T06:13:13.326Z,74.7
2017-12-25T06:14:15.754Z,74.8
2017-12-25T06:15:18.162Z,74.6
2017-12-25T06:16:20.620Z,74.7
2017-12-25T06:17:23.324Z,74.7
2017-12-25T06:18:25.729Z,74.7
2017-12-25T06:19:28.146Z,74.7
2017-12-25T06:20:30.560Z,74.7
2017-12-25T06:21:33.282Z,74.7
2017-12-25T06:22:35.704Z,74.7
2017-12-25T06:23:38.114Z,74.6
2017-12-25T06:24:40.526Z,74.7
2017-12-25T06:25:42.952Z,74.6
2017-12-25T06:26:45.361Z,74.5
2017-12-25T06:27:47.773Z,74.6
2017-12-25T06:28:50.192Z,74.7
2017-12-25T06:29:52.889Z,74.7
2017-12-25T06:30:55.585Z,74.7
2017-12-25T06:31:58.001Z,74.6
2017-12-25T06:33:00.430Z,74.6
2017-12-25T06:34:02.844Z,74.5
2017-12-25T06:35:05.254Z,74.5
2017-12-25T06:36:07.949Z,74.5
2017-12-25T06:37:10.364Z,74.5
2017-12-25T06:38:12.783Z,74.5
2017-12-25T06:39:15.202Z,74.5
2017-12-25T06:40:17.602Z,74.6
2017-12-25T06:41:20.018Z,74.5
2017-12-25T06:42:22.446Z,74.6
2017-12-25T06:43:24.861Z,74.5
2017-12-25T06:44:27.264Z,74.5
2017-12-25T06:45:29.675Z,74.6
2017-12-25T06:46:32.078Z,74.5
2017-12-25T06:47:34.511Z,74.5
2017-12-25T06:48:36.928Z,74.4
2017-12-25T06:49:39.335Z,74.4
2017-12-25T06:50:41.754Z,74.4
2017-12-25T06:51:44.174Z,74.3
2017-12-25T06:52:46.592Z,74.2
2017-12-25T06:53:49.016Z,74.3
2017-12-25T06:54:51.421Z,74.3
2017-12-25T06:55:53.830Z,74.3
2017-12-25T06:56:56.257Z,74.2
2017-12-25T06:57:58.665Z,74.2
2017-12-25T06:59:01.075Z,74.1
2017-12-25T07:00:03.495Z,74.1
2017-12-25T07:01:05.922Z,74.1
2017-12-25T07:02:08.335Z,74.2
2017-12-25T07:03:10.751Z,74.2
2017-12-25T07:04:13.178Z,74.3
2017-12-25T07:05:15.583Z,74.3
2017-12-25T07:06:18.290Z,74.3
2017-12-25T07:07:20.720Z,74.3
2017-12-25T07:08:23.224Z,74.3
2017-12-25T07:09:26.147Z,74.3
2017-12-25T07:10:28.557Z,74.3
2017-12-25T07:11:31.996Z,74.4
2017-12-25T07:12:34.705Z,74.4
2017-12-25T07:13:37.415Z,74.4
2017-12-25T07:14:39.840Z,74.4
2017-12-25T07:15:42.247Z,74.4
2017-12-25T07:16:44.674Z,74.2
2017-12-25T07:17:47.119Z,74.2
2017-12-25T07:18:49.501Z,74.3
2017-12-25T07:19:52.212Z,74.4
2017-12-25T07:20:54.635Z,74.4
2017-12-25T07:21:57.039Z,74.5
2017-12-25T07:22:59.472Z,74.4
2017-12-25T07:24:01.890Z,74.4
2017-12-25T07:25:04.301Z,74.3
2017-12-25T07:26:06.721Z,74.4
2017-12-25T07:27:09.150Z,74.3
2017-12-25T07:28:11.834Z,74.4
2017-12-25T07:29:14.248Z,74.5
2017-12-25T07:30:16.690Z,74.7
2017-12-25T07:31:19.102Z,74.6
2017-12-25T07:32:21.523Z,74.7
2017-12-25T07:33:23.941Z,74.7
2017-12-25T07:34:26.667Z,74.7
2017-12-25T07:35:29.362Z,74.8
2017-12-25T07:36:31.771Z,74.7
2017-12-25T07:37:34.180Z,74.8
2017-12-25T07:38:36.878Z,74.8
2017-12-25T07:39:39.298Z,74.7
2017-12-25T07:40:41.731Z,74.7
2017-12-25T07:41:44.147Z,74.8
2017-12-25T07:42:46.853Z,74.8
2017-12-25T07:43:49.274Z,74.8
2017-12-25T07:44:51.700Z,74.8
2017-12-25T07:45:54.152Z,74.7
2017-12-25T07:46:56.596Z,74.8
2017-12-25T07:47:59.304Z,74.8
2017-12-25T07:49:01.734Z,74.8
2017-12-25T07:50:04.151Z,74.8
2017-12-25T07:51:06.597Z,74.8
2017-12-25T07:52:09.050Z,74.7
2017-12-25T07:53:11.464Z,74.8
2017-12-25T07:54:13.881Z,74.8
2017-12-25T07:55:16.867Z,74.8
2017-12-25T07:56:19.286Z,74.8
2017-12-25T07:57:21.999Z,74.7
2017-12-25T07:58:24.413Z,74.6
2017-12-25T07:59:26.822Z,74.5
2017-12-25T08:00:29.292Z,74.5
2017-12-25T08:01:31.749Z,74.6
2017-12-25T08:02:34.159Z,74.7
2017-12-25T08:03:36.563Z,74.8
2017-12-25T08:04:38.987Z,74.9
2017-12-25T08:05:41.408Z,74.8
2017-12-25T08:06:43.815Z,74.9
2017-12-25T08:07:46.229Z,75.1
2017-12-25T08:08:48.648Z,75.1
2017-12-25T08:09:51.072Z,75
2017-12-25T08:10:53.499Z,75
2017-12-25T08:11:55.907Z,74.9
2017-12-25T08:12:58.625Z,74.9
2017-12-25T08:14:01.045Z,74.8
2017-12-25T08:15:03.739Z,74.7
2017-12-25T08:16:06.450Z,74.8
2017-12-25T08:17:08.867Z,74.8
2017-12-25T08:18:12.293Z,74.8
2017-12-25T08:19:14.715Z,74.8
2017-12-25T08:20:17.115Z,74.8
2017-12-25T08:21:19.532Z,74.9
2017-12-25T08:22:24.587Z,74.9
2017-12-25T08:23:32.834Z,74.9
2017-12-25T08:24:40.796Z,75
2017-12-25T08:25:48.255Z,75
2017-12-25T08:26:53.450Z,75
2017-12-25T08:28:00.942Z,75.1
2017-12-25T08:29:06.122Z,74.9
2017-12-25T08:30:08.538Z,74.8
2017-12-25T08:31:10.949Z,74.9
2017-12-25T08:32:13.368Z,75
2017-12-25T08:33:15.778Z,75.1
2017-12-25T08:34:18.197Z,74.9
2017-12-25T08:35:20.619Z,74.9
2017-12-25T08:36:23.308Z,75
2017-12-25T08:37:25.739Z,75
2017-12-25T08:38:28.155Z,75
2017-12-25T08:39:30.581Z,74.9
2017-12-25T08:40:33.366Z,75
2017-12-25T08:41:36.655Z,75.1
2017-12-25T08:42:39.355Z,75
2017-12-25T08:43:41.780Z,75
2017-12-25T08:44:44.234Z,75.1
2017-12-25T08:45:46.662Z,75
2017-12-25T08:46:49.100Z,74.9
2017-12-25T08:47:51.803Z,74.9
2017-12-25T08:48:54.491Z,75
2017-12-25T08:49:57.710Z,75.1
2017-12-25T08:51:00.126Z,75.2
2017-12-25T08:52:02.840Z,75.2
2017-12-25T08:53:05.554Z,75
2017-12-25T08:54:07.971Z,75.2
2017-12-25T08:55:10.381Z,75.2
2017-12-25T08:56:12.842Z,75.2
2017-12-25T08:57:15.508Z,75.3
2017-12-25T08:58:18.900Z,75.3
2017-12-25T08:59:21.734Z,75.4
2017-12-25T09:00:24.150Z,75.4
2017-12-25T09:01:26.559Z,75.4
2017-12-25T09:02:28.976Z,75.4
2017-12-25T09:03:31.394Z,75.2
2017-12-25T09:04:33.812Z,75.2
2017-12-25T09:05:36.223Z,75.1
2017-12-25T09:06:39.127Z,75.1
2017-12-25T09:07:41.538Z,75.1
2017-12-25T09:08:43.966Z,75.1
2017-12-25T09:09:46.387Z,75.1
2017-12-25T09:10:48.791Z,75.2
2017-12-25T09:11:51.221Z,75.1
2017-12-25T09:12:53.629Z,75.2
2017-12-25T09:13:56.075Z,75.1
2017-12-25T09:14:58.487Z,75.2
2017-12-25T09:16:00.912Z,75.3
2017-12-25T09:17:03.326Z,75.4
2017-12-25T09:18:05.748Z,75.4
2017-12-25T09:19:08.758Z,75.3
2017-12-25T09:20:11.186Z,75.3
2017-12-25T09:21:13.605Z,75.4
2017-12-25T09:22:16.018Z,75.2
2017-12-25T09:23:18.717Z,75.1
2017-12-25T09:24:21.145Z,75.1
2017-12-25T09:25:23.574Z,75.2
2017-12-25T09:26:26.008Z,75.2
2017-12-25T09:27:28.461Z,75.2
2017-12-25T09:28:30.902Z,75.2
2017-12-25T09:29:33.352Z,75.3
2017-12-25T09:30:35.802Z,75.4
2017-12-25T09:31:38.249Z,75.4
2017-12-25T09:32:40.692Z,75.5
2017-12-25T09:33:43.142Z,75.5
2017-12-25T09:34:45.575Z,75.5
2017-12-25T09:35:48.014Z,75.3
2017-12-25T09:36:50.744Z,75.2
2017-12-25T09:37:53.180Z,75.2
2017-12-25T09:38:55.621Z,75.2
2017-12-25T09:39:58.629Z,75.2
2017-12-25T09:41:01.068Z,75.2
2017-12-25T09:42:03.517Z,75.2
2017-12-25T09:43:06.269Z,75.3
2017-12-25T09:44:08.701Z,75.4
2017-12-25T09:45:11.154Z,75.5
2017-12-25T09:46:13.566Z,75.4
2017-12-25T09:47:16.017Z,75.4
2017-12-25T09:48:18.447Z,75.4
2017-12-25T09:49:20.862Z,75.5
2017-12-25T09:50:23.297Z,75.6
2017-12-25T09:51:26.037Z,75.6
2017-12-25T09:52:28.762Z,75.6
2017-12-25T09:53:31.217Z,75.4
2017-12-25T09:54:33.680Z,75.3
2017-12-25T09:55:36.118Z,75.3
2017-12-25T09:56:38.565Z,75.3
2017-12-25T09:57:41.266Z,75.3
2017-12-25T09:58:44.304Z,75.3
2017-12-25T09:59:46.773Z,75.4
2017-12-25T10:00:49.199Z,75.3
2017-12-25T10:01:51.650Z,75.2
2017-12-25T10:02:54.375Z,75.1
2017-12-25T10:03:56.807Z,75.1
2017-12-25T10:04:59.245Z,75.2
2017-12-25T10:06:01.669Z,75.2
2017-12-25T10:07:04.105Z,75.2
2017-12-25T10:08:06.539Z,75.1
2017-12-25T10:09:08.990Z,75.2
2017-12-25T10:10:11.729Z,75.2
2017-12-25T10:11:14.177Z,75.1
2017-12-25T10:12:16.594Z,75
2017-12-25T10:13:19.020Z,74.7
2017-12-25T10:14:21.440Z,74.8
2017-12-25T10:15:23.874Z,74.7
2017-12-25T10:16:26.333Z,74.7
2017-12-25T10:17:29.088Z,74.8
2017-12-25T10:18:31.517Z,74.9
2017-12-25T10:19:33.975Z,75.1
2017-12-25T10:20:36.410Z,75.2
2017-12-25T10:21:38.860Z,75.2
2017-12-25T10:22:41.321Z,75.2
2017-12-25T10:23:43.760Z,75.1
2017-12-25T10:24:46.204Z,75
2017-12-25T10:25:48.656Z,75.1
2017-12-25T10:26:51.101Z,75.1
2017-12-25T10:27:53.519Z,75.1
2017-12-25T10:28:56.258Z,74.9
2017-12-25T10:29:58.906Z,74.9
2017-12-25T10:31:01.356Z,75
2017-12-25T10:32:03.863Z,75.1
2017-12-25T10:33:06.573Z,75
2017-12-25T10:34:09.714Z,74.9
2017-12-25T10:35:16.160Z,75
2017-12-25T10:36:19.282Z,75
2017-12-25T10:37:22.861Z,74.9
2017-12-25T10:38:25.474Z,74.8
2017-12-25T10:39:27.998Z,74.9
2017-12-25T10:40:30.460Z,75
2017-12-25T10:41:32.923Z,74.9
2017-12-25T10:42:35.357Z,74.8
2017-12-25T10:43:37.793Z,75
2017-12-25T10:44:40.243Z,75.1
2017-12-25T10:45:42.681Z,75
2017-12-25T10:46:45.131Z,74.8
2017-12-25T10:47:47.575Z,75
2017-12-25T10:48:50.008Z,74.8
2017-12-25T10:49:52.455Z,74.8
2017-12-25T10:50:54.887Z,74.8
2017-12-25T10:51:57.326Z,74.9
2017-12-25T10:52:59.753Z,74.9
2017-12-25T10:54:02.185Z,74.9
2017-12-25T10:55:04.641Z,74.7
2017-12-25T10:56:07.068Z,74.9
2017-12-25T10:57:09.763Z,74.9
2017-12-25T10:58:12.183Z,75
2017-12-25T10:59:14.584Z,74.9
2017-12-25T11:00:17.013Z,75
2017-12-25T11:01:19.432Z,75
2017-12-25T11:02:22.120Z,75
2017-12-25T11:03:24.535Z,75
2017-12-25T11:04:26.963Z,75
2017-12-25T11:05:29.381Z,74.9
2017-12-25T11:06:32.091Z,74.9
2017-12-25T11:07:34.505Z,75
2017-12-25T11:08:36.915Z,75
2017-12-25T11:09:39.342Z,75.1
2017-12-25T11:10:42.042Z,75.1
2017-12-25T11:11:44.456Z,75
2017-12-25T11:12:46.874Z,74.9
2017-12-25T11:13:49.291Z,75
2017-12-25T11:14:51.719Z,75
2017-12-25T11:15:54.424Z,75
2017-12-25T11:16:56.843Z,74.8
2017-12-25T11:17:59.534Z,74.7
2017-12-25T11:19:01.958Z,74.8
2017-12-25T11:20:04.375Z,74.8
2017-12-25T11:21:06.797Z,75
2017-12-25T11:22:09.203Z,75
2017-12-25T11:23:11.629Z,75
2017-12-25T11:24:14.050Z,75
2017-12-25T11:25:16.468Z,75
2017-12-25T11:26:18.872Z,75
2017-12-25T11:27:21.287Z,74.9
2017-12-25T11:28:23.699Z,75
2017-12-25T11:29:26.117Z,75
2017-12-25T11:30:28.529Z,75
2017-12-25T11:31:30.953Z,75
2017-12-25T11:32:33.363Z,75
2017-12-25T11:33:36.103Z,75
2017-12-25T11:34:38.556Z,74.9
2017-12-25T11:35:40.964Z,74.9
2017-12-25T11:36:43.383Z,75
2017-12-25T11:37:45.798Z,74.9
2017-12-25T11:38:48.212Z,74.7
2017-12-25T11:39:50.638Z,74.8
2017-12-25T11:40:53.043Z,74.8
2017-12-25T11:41:55.759Z,74.9
2017-12-25T11:42:58.179Z,75
2017-12-25T11:44:00.590Z,74.9
2017-12-25T11:45:03.048Z,74.7
2017-12-25T11:46:05.428Z,74.9
2017-12-25T11:47:07.830Z,74.9
2017-12-25T11:48:10.265Z,75
2017-12-25T11:49:12.686Z,75.1
2017-12-25T11:50:15.096Z,75.1
2017-12-25T11:51:17.540Z,75.1
2017-12-25T11:52:19.935Z,75.2
2017-12-25T11:53:22.350Z,75.2
2017-12-25T11:54:25.047Z,75.1
2017-12-25T11:55:27.471Z,75
2017-12-25T11:56:29.889Z,74.9
2017-12-25T11:57:32.289Z,74.9
2017-12-25T11:58:34.705Z,75
2017-12-25T11:59:37.128Z,74.9
2017-12-25T12:00:39.544Z,75
2017-12-25T12:01:41.963Z,75
2017-12-25T12:02:44.376Z,74.9
2017-12-25T12:03:46.791Z,74.9
2017-12-25T12:04:49.495Z,75
2017-12-25T12:05:51.904Z,74.8
2017-12-25T12:06:54.592Z,74.7
2017-12-25T12:07:57.017Z,74.7
2017-12-25T12:08:59.433Z,74.7
2017-12-25T12:10:01.860Z,74.6
2017-12-25T12:11:04.866Z,74.6
2017-12-25T12:12:07.274Z,74.5
2017-12-25T12:13:09.973Z,74.5
2017-12-25T12:14:12.404Z,74.6
2017-12-25T12:15:15.093Z,74.7
2017-12-25T12:16:17.504Z,74.6
2017-12-25T12:17:20.206Z,74.6
2017-12-25T12:18:22.621Z,74.5
2017-12-25T12:19:25.653Z,74.5
2017-12-25T12:20:28.886Z,74.5
2017-12-25T12:21:31.323Z,74.5
2017-12-25T12:22:33.784Z,74.5
2017-12-25T12:23:36.215Z,74.4
2017-12-25T12:24:38.619Z,74.5
2017-12-25T12:25:41.325Z,74.5
2017-12-25T12:26:43.741Z,74.7
2017-12-25T12:27:46.450Z,74.8
2017-12-25T12:28:48.875Z,74.7
2017-12-25T12:29:51.295Z,74.5
2017-12-25T12:30:53.945Z,74.6
2017-12-25T12:31:57.353Z,74.7
2017-12-25T12:33:00.090Z,74.7
2017-12-25T12:34:02.895Z,74.7
2017-12-25T12:35:06.722Z,74.6
2017-12-25T12:36:14.352Z,74.6
2017-12-25T12:37:17.327Z,74.6
2017-12-25T12:38:22.577Z,74.5
2017-12-25T12:39:24.978Z,74.5
2017-12-25T12:40:27.403Z,74.4
2017-12-25T12:41:30.092Z,74.6
2017-12-25T12:42:33.181Z,74.5
2017-12-25T12:43:35.949Z,74.5
2017-12-25T12:44:38.604Z,74.5
2017-12-25T12:45:41.154Z,74.4
2017-12-25T12:46:43.698Z,74.2
2017-12-25T12:47:46.543Z,74.2
2017-12-25T12:48:49.062Z,74.4
2017-12-25T12:49:51.635Z,74.5
2017-12-25T12:50:54.047Z,74.4
2017-12-25T12:51:56.467Z,74.4
2017-12-25T12:52:58.889Z,74.5
2017-12-25T12:54:01.577Z,74.4
2017-12-25T12:55:03.991Z,74.4
2017-12-25T12:56:06.418Z,74.2
2017-12-25T12:57:09.126Z,74.3
2017-12-25T12:58:11.544Z,74.2
2017-12-25T12:59:13.963Z,74.2
2017-12-25T13:00:16.417Z,74.3
2017-12-25T13:01:18.912Z,74.3
2017-12-25T13:02:21.436Z,74.3
2017-12-25T13:03:23.958Z,74.4
2017-12-25T13:04:26.447Z,74.5
2017-12-25T13:05:28.954Z,74.7
2017-12-25T13:06:31.477Z,74.7
2017-12-25T13:07:33.983Z,74.8
2017-12-25T13:08:36.777Z,74.7
2017-12-25T13:09:39.320Z,74.7
2017-12-25T13:10:41.813Z,74.6
2017-12-25T13:11:44.354Z,74.7
2017-12-25T13:12:46.862Z,74.7
2017-12-25T13:13:49.650Z,74.6
2017-12-25T13:14:52.177Z,74.5
2017-12-25T13:15:54.980Z,74.7
2017-12-25T13:16:58.834Z,74.7
2017-12-25T13:18:01.576Z,74.8
2017-12-25T13:19:04.066Z,74.7
2017-12-25T13:20:06.586Z,74.5
2017-12-25T13:21:09.104Z,74.5
2017-12-25T13:22:11.922Z,74.6
2017-12-25T13:23:14.410Z,74.5
2017-12-25T13:24:16.953Z,74.6
2017-12-25T13:25:19.449Z,74.7
2017-12-25T13:26:21.953Z,74.8
2017-12-25T13:27:24.465Z,74.7
2017-12-25T13:28:26.982Z,74.7
2017-12-25T13:29:29.493Z,74.7
2017-12-25T13:30:31.985Z,74.8
2017-12-25T13:31:34.479Z,74.7
2017-12-25T13:32:36.990Z,74.7
2017-12-25T13:33:39.496Z,74.6
2017-12-25T13:34:42.334Z,74.7
2017-12-25T13:35:44.840Z,74.7
2017-12-25T13:36:47.342Z,74.7
2017-12-25T13:37:49.868Z,74.6
2017-12-25T13:38:52.404Z,74.6
2017-12-25T13:39:54.870Z,74.6
2017-12-25T13:40:57.422Z,74.7
2017-12-25T13:41:59.929Z,74.6
2017-12-25T13:43:03.086Z,74.7
2017-12-25T13:44:05.595Z,74.7
2017-12-25T13:45:08.091Z,74.7
2017-12-25T13:46:10.839Z,74.6
2017-12-25T13:47:13.457Z,74.5
2017-12-25T13:48:16.339Z,74.5
2017-12-25T13:49:18.915Z,74.6
2017-12-25T13:50:21.624Z,74.7
2017-12-25T13:51:24.188Z,74.7
2017-12-25T13:52:26.711Z,74.6
2017-12-25T13:53:29.500Z,74.7
2017-12-25T13:54:32.279Z,74.6
2017-12-25T13:55:34.788Z,74.7
2017-12-25T13:56:37.305Z,74.6
2017-12-25T13:57:39.853Z,74.3
2017-12-25T13:58:42.350Z,74.2
2017-12-25T13:59:45.189Z,74.3
2017-12-25T14:00:47.674Z,74.4
2017-12-25T14:01:50.217Z,74.4